EGJJ

Jersey Airport

Saint Helier, Jersey
METAR EGJJ 162220Z AUTO 26019KT 9999 SCT026/// BKN030/// BKN039/// 08/05 Q1007
Observed Flight Rules
Jan-16 @ 22:20 UTC (14 minutes ago) Marginal Visual Flight Rules
Wind Visibility Clouds
260° at 19 knots 10,000+ meters
  • Scattered at 2,600' AGL
  • Broken at 3,000' AGL
  • Broken at 3,900' AGL
Temperatures Readings
Current 8°C / 46°F
Dewpoint 5°C / 41°F
Humidity 82%
Altimeter 29.73" Hg
Pressure 1006.92 hPa
Elevation 84
METAR EGJJ 162220Z AUTO 26019KT 9999 SCT026/// BKN030/// BKN039/// 08/05 Q1007
Observed Flight Rules
Jan-16 @ 22:20 UTC
(14 minutes ago)
MVFR
Wind Visibility
260° at 19 knots 10,000+ meters
Clouds
  • Scattered at 2,600' AGL
  • Broken at 3,000' AGL
  • Broken at 3,900' AGL
Temperature Dewpoint
8°C / 46°F 5°C / 41°F
Humidity Altimeter Pressure
82% 29.73" Hg 1006.92 hPa